sensor_id;sensor_type;location;lat;lon;timestamp;P1;durP1;ratioP1;P2;durP2;ratioP2
21120;SDS011;12519;43.318;21.898;2023-01-15T00:04:15;48.0;;;39.0;;
21120;SDS011;12519;43.318;21.898;2023-01-15T00:08:54;55.0;;;39.0;;
21120;SDS011;12519;43.318;21.898;2023-01-15T00:13:31;55.0;;;39.0;;
21120;SDS011;12519;43.318;21.898;2023-01-15T00:18:07;52.0;;;40.0;;
21120;SDS011;12519;43.318;21.898;2023-01-15T00:22:45;52.0;;;40.0;;
21120;SDS011;12519;43.318;21.898;2023-01-15T00:27:22;49.0;;;40.0;;
21120;SDS011;12519;43.318;21.898;2023-01-15T00:32:06;49.0;;;40.0;;
21120;SDS011;12519;43.318;21.898;2023-01-15T00:36:43;60.0;;;44.0;;
21120;SDS011;12519;43.318;21.898;2023-01-15T00:41:20;60.0;;;44.0;;
21120;SDS011;12519;43.318;21.898;2023-01-15T00:45:58;72.0;;;48.0;;
21120;SDS011;12519;43.318;21.898;2023-01-15T00:50:34;72.0;;;48.0;;
21120;SDS011;12519;43.318;21.898;2023-01-15T00:55:11;72.0;;;48.0;;
21120;SDS011;12519;43.318;21.898;2023-01-15T00:59:47;68.0;;;46.0;;
21120;SDS011;12519;43.318;21.898;2023-01-15T01:04:24;68.0;;;46.0;;
21120;SDS011;12519;43.318;21.898;2023-01-15T01:09:00;64.0;;;45.0;;
21120;SDS011;12519;43.318;21.898;2023-01-15T01:13:38;64.0;;;45.0;;
21120;SDS011;12519;43.318;21.898;2023-01-15T01:18:14;66.0;;;46.0;;
21120;SDS011;12519;43.318;21.898;2023-01-15T01:22:51;66.0;;;46.0;;
21120;SDS011;12519;43.318;21.898;2023-01-15T01:27:28;67.0;;;47.0;;
21120;SDS011;12519;43.318;21.898;2023-01-15T01:32:05;67.0;;;47.0;;
21120;SDS011;12519;43.318;21.898;2023-01-15T01:36:43;64.0;;;47.0;;
21120;SDS011;12519;43.318;21.898;2023-01-15T01:41:20;64.0;;;47.0;;
21120;SDS011;12519;43.318;21.898;2023-01-15T01:45:57;61.0;;;47.0;;
21120;SDS011;12519;43.318;21.898;2023-01-15T01:50:39;61.0;;;47.0;;
21120;SDS011;12519;43.318;21.898;2023-01-15T01:55:24;58.0;;;46.0;;
21120;SDS011;12519;43.318;21.898;2023-01-15T02:00:11;58.0;;;46.0;;
21120;SDS011;12519;43.318;21.898;2023-01-15T02:04:51;58.0;;;46.0;;
21120;SDS011;12519;43.318;21.898;2023-01-15T02:09:28;54.0;;;44.0;;
21120;SDS011;12519;43.318;21.898;2023-01-15T02:14:18;54.0;;;44.0;;
21120;SDS011;12519;43.318;21.898;2023-01-15T02:19:29;50.0;;;42.0;;
21120;SDS011;12519;43.318;21.898;2023-01-15T02:24:53;50.0;;;42.0;;
21120;SDS011;12519;43.318;21.898;2023-01-15T02:29:58;47.0;;;39.0;;
21120;SDS011;12519;43.318;21.898;2023-01-15T02:34:52;47.0;;;39.0;;
21120;SDS011;12519;43.318;21.898;2023-01-15T02:39:44;46.0;;;38.0;;
21120;SDS011;12519;43.318;21.898;2023-01-15T02:44:31;46.0;;;38.0;;
21120;SDS011;12519;43.318;21.898;2023-01-15T02:49:26;44.0;;;36.0;;
21120;SDS011;12519;43.318;21.898;2023-01-15T02:54:13;44.0;;;36.0;;
21120;SDS011;12519;43.318;21.898;2023-01-15T02:59:09;46.0;;;38.0;;
21120;SDS011;12519;43.318;21.898;2023-01-15T03:04:16;46.0;;;38.0;;
21120;SDS011;12519;43.318;21.898;2023-01-15T03:09:16;49.0;;;40.0;;
21120;SDS011;12519;43.318;21.898;2023-01-15T03:14:06;49.0;;;40.0;;
21120;SDS011;12519;43.318;21.898;2023-01-15T03:19:24;54.0;;;40.0;;
21120;SDS011;12519;43.318;21.898;2023-01-15T03:24:37;54.0;;;40.0;;
21120;SDS011;12519;43.318;21.898;2023-01-15T03:29:37;60.0;;;40.0;;
21120;SDS011;12519;43.318;21.898;2023-01-15T03:34:39;60.0;;;40.0;;
21120;SDS011;12519;43.318;21.898;2023-01-15T03:39:21;58.0;;;40.0;;
21120;SDS011;12519;43.318;21.898;2023-01-15T03:44:15;58.0;;;40.0;;
21120;SDS011;12519;43.318;21.898;2023-01-15T03:49:22;57.0;;;40.0;;
21120;SDS011;12519;43.318;21.898;2023-01-15T03:54:31;57.0;;;40.0;;
21120;SDS011;12519;43.318;21.898;2023-01-15T03:59:33;56.0;;;42.0;;
21120;SDS011;12519;43.318;21.898;2023-01-15T04:04:22;56.0;;;42.0;;
21120;SDS011;12519;43.318;21.898;2023-01-15T04:09:08;54.0;;;43.0;;
21120;SDS011;12519;43.318;21.898;2023-01-15T04:13:50;54.0;;;43.0;;
21120;SDS011;12519;43.318;21.898;2023-01-15T04:18:28;52.0;;;41.0;;
21120;SDS011;12519;43.318;21.898;2023-01-15T04:23:04;52.0;;;41.0;;
21120;SDS011;12519;43.318;21.898;2023-01-15T04:27:41;49.0;;;39.0;;
21120;SDS011;12519;43.318;21.898;2023-01-15T04:32:17;49.0;;;39.0;;
21120;SDS011;12519;43.318;21.898;2023-01-15T04:36:56;53.0;;;40.0;;
21120;SDS011;12519;43.318;21.898;2023-01-15T04:41:32;53.0;;;40.0;;
21120;SDS011;12519;43.318;21.898;2023-01-15T04:46:09;57.0;;;42.0;;
21120;SDS011;12519;43.318;21.898;2023-01-15T04:50:45;57.0;;;42.0;;
21120;SDS011;12519;43.318;21.898;2023-01-15T04:55:22;57.0;;;42.0;;
21120;SDS011;12519;43.318;21.898;2023-01-15T04:59:58;57.0;;;42.0;;
21120;SDS011;12519;43.318;21.898;2023-01-15T05:04:35;57.0;;;42.0;;
21120;SDS011;12519;43.318;21.898;2023-01-15T05:09:12;57.0;;;41.0;;
21120;SDS011;12519;43.318;21.898;2023-01-15T05:13:48;57.0;;;41.0;;
21120;SDS011;12519;43.318;21.898;2023-01-15T05:18:25;56.0;;;44.0;;
21120;SDS011;12519;43.318;21.898;2023-01-15T05:23:01;56.0;;;44.0;;
21120;SDS011;12519;43.318;21.898;2023-01-15T05:27:37;56.0;;;47.0;;
21120;SDS011;12519;43.318;21.898;2023-01-15T05:32:14;56.0;;;47.0;;
21120;SDS011;12519;43.318;21.898;2023-01-15T05:36:50;66.0;;;48.0;;
21120;SDS011;12519;43.318;21.898;2023-01-15T05:41:29;66.0;;;48.0;;
21120;SDS011;12519;43.318;21.898;2023-01-15T05:46:06;77.0;;;50.0;;
21120;SDS011;12519;43.318;21.898;2023-01-15T05:50:42;77.0;;;50.0;;
21120;SDS011;12519;43.318;21.898;2023-01-15T05:55:19;77.0;;;50.0;;
21120;SDS011;12519;43.318;21.898;2023-01-15T05:59:56;74.0;;;48.0;;
21120;SDS011;12519;43.318;21.898;2023-01-15T06:04:33;74.0;;;48.0;;
21120;SDS011;12519;43.318;21.898;2023-01-15T06:09:10;70.0;;;46.0;;
21120;SDS011;12519;43.318;21.898;2023-01-15T06:13:49;70.0;;;46.0;;
21120;SDS011;12519;43.318;21.898;2023-01-15T06:18:26;65.0;;;45.0;;
21120;SDS011;12519;43.318;21.898;2023-01-15T06:23:04;65.0;;;45.0;;
21120;SDS011;12519;43.318;21.898;2023-01-15T06:27:41;60.0;;;44.0;;
21120;SDS011;12519;43.318;21.898;2023-01-15T06:32:17;60.0;;;44.0;;
21120;SDS011;12519;43.318;21.898;2023-01-15T06:36:54;60.0;;;46.0;;
21120;SDS011;12519;43.318;21.898;2023-01-15T06:41:30;60.0;;;46.0;;
21120;SDS011;12519;43.318;21.898;2023-01-15T06:46:08;59.0;;;49.0;;
21120;SDS011;12519;43.318;21.898;2023-01-15T06:50:45;59.0;;;49.0;;
21120;SDS011;12519;43.318;21.898;2023-01-15T06:55:21;59.0;;;49.0;;
21120;SDS011;12519;43.318;21.898;2023-01-15T06:59:58;64.0;;;52.0;;
21120;SDS011;12519;43.318;21.898;2023-01-15T07:04:35;64.0;;;52.0;;
21120;SDS011;12519;43.318;21.898;2023-01-15T07:09:12;69.0;;;56.0;;
21120;SDS011;12519;43.318;21.898;2023-01-15T07:13:49;69.0;;;56.0;;
21120;SDS011;12519;43.318;21.898;2023-01-15T07:18:28;65.0;;;52.0;;
21120;SDS011;12519;43.318;21.898;2023-01-15T07:23:08;65.0;;;52.0;;
21120;SDS011;12519;43.318;21.898;2023-01-15T07:27:46;61.0;;;47.0;;
21120;SDS011;12519;43.318;21.898;2023-01-15T07:32:24;61.0;;;47.0;;
21120;SDS011;12519;43.318;21.898;2023-01-15T07:37:00;58.0;;;42.0;;
21120;SDS011;12519;43.318;21.898;2023-01-15T07:41:37;58.0;;;42.0;;
21120;SDS011;12519;43.318;21.898;2023-01-15T07:46:14;55.0;;;38.0;;
21120;SDS011;12519;43.318;21.898;2023-01-15T07:50:50;55.0;;;38.0;;
21120;SDS011;12519;43.318;21.898;2023-01-15T07:55:27;55.0;;;38.0;;
21120;SDS011;12519;43.318;21.898;2023-01-15T08:00:09;54.0;;;40.0;;
21120;SDS011;12519;43.318;21.898;2023-01-15T08:04:53;54.0;;;40.0;;
21120;SDS011;12519;43.318;21.898;2023-01-15T08:09:31;52.0;;;41.0;;
21120;SDS011;12519;43.318;21.898;2023-01-15T08:14:09;52.0;;;41.0;;
21120;SDS011;12519;43.318;21.898;2023-01-15T08:18:47;44.0;;;35.0;;
21120;SDS011;12519;43.318;21.898;2023-01-15T08:23:23;44.0;;;35.0;;
21120;SDS011;12519;43.318;21.898;2023-01-15T08:28:01;37.0;;;29.0;;
21120;SDS011;12519;43.318;21.898;2023-01-15T08:32:39;37.0;;;29.0;;
21120;SDS011;12519;43.318;21.898;2023-01-15T08:37:17;50.0;;;40.0;;
21120;SDS011;12519;43.318;21.898;2023-01-15T08:41:55;50.0;;;40.0;;
21120;SDS011;12519;43.318;21.898;2023-01-15T08:46:32;62.0;;;52.0;;
21120;SDS011;12519;43.318;21.898;2023-01-15T08:51:11;62.0;;;52.0;;
21120;SDS011;12519;43.318;21.898;2023-01-15T08:55:48;62.0;;;52.0;;
21120;SDS011;12519;43.318;21.898;2023-01-15T09:00:24;62.0;;;48.0;;
21120;SDS011;12519;43.318;21.898;2023-01-15T09:05:01;62.0;;;48.0;;
21120;SDS011;12519;43.318;21.898;2023-01-15T09:09:37;62.0;;;44.0;;
21120;SDS011;12519;43.318;21.898;2023-01-15T09:14:14;62.0;;;44.0;;
21120;SDS011;12519;43.318;21.898;2023-01-15T09:18:51;75.0;;;58.0;;
21120;SDS011;12519;43.318;21.898;2023-01-15T09:23:27;75.0;;;58.0;;
21120;SDS011;12519;43.318;21.898;2023-01-15T09:28:04;88.0;;;73.0;;
21120;SDS011;12519;43.318;21.898;2023-01-15T09:32:40;88.0;;;73.0;;
21120;SDS011;12519;43.318;21.898;2023-01-15T09:37:17;62.0;;;50.0;;
21120;SDS011;12519;43.318;21.898;2023-01-15T09:42:23;62.0;;;50.0;;
21120;SDS011;12519;43.318;21.898;2023-01-15T09:47:30;35.0;;;27.0;;
21120;SDS011;12519;43.318;21.898;2023-01-15T09:52:56;35.0;;;27.0;;
21120;SDS011;12519;43.318;21.898;2023-01-15T09:58:16;32.0;;;26.0;;
21120;SDS011;12519;43.318;21.898;2023-01-15T10:03:33;32.0;;;26.0;;
21120;SDS011;12519;43.318;21.898;2023-01-15T10:08:28;30.0;;;25.0;;
21120;SDS011;12519;43.318;21.898;2023-01-15T10:13:30;30.0;;;25.0;;
21120;SDS011;12519;43.318;21.898;2023-01-15T10:18:26;24.0;;;22.0;;
21120;SDS011;12519;43.318;21.898;2023-01-15T10:23:32;24.0;;;22.0;;
21120;SDS011;12519;43.318;21.898;2023-01-15T10:28:23;19.0;;;18.0;;
21120;SDS011;12519;43.318;21.898;2023-01-15T10:33:44;19.0;;;18.0;;
21120;SDS011;12519;43.318;21.898;2023-01-15T10:38:57;17.0;;;16.0;;
21120;SDS011;12519;43.318;21.898;2023-01-15T10:44:00;17.0;;;16.0;;
21120;SDS011;12519;43.318;21.898;2023-01-15T10:48:57;15.0;;;13.0;;
21120;SDS011;12519;43.318;21.898;2023-01-15T10:53:57;15.0;;;13.0;;
21120;SDS011;12519;43.318;21.898;2023-01-15T10:59:13;14.0;;;12.0;;
21120;SDS011;12519;43.318;21.898;2023-01-15T11:04:14;14.0;;;12.0;;
21120;SDS011;12519;43.318;21.898;2023-01-15T11:08:57;12.0;;;12.0;;
21120;SDS011;12519;43.318;21.898;2023-01-15T11:13:35;12.0;;;12.0;;
21120;SDS011;12519;43.318;21.898;2023-01-15T11:18:25;17.0;;;16.0;;
21120;SDS011;12519;43.318;21.898;2023-01-15T11:23:17;17.0;;;16.0;;
21120;SDS011;12519;43.318;21.898;2023-01-15T11:28:02;22.0;;;20.0;;
21120;SDS011;12519;43.318;21.898;2023-01-15T11:32:42;22.0;;;20.0;;
21120;SDS011;12519;43.318;21.898;2023-01-15T11:37:31;20.0;;;16.0;;
21120;SDS011;12519;43.318;21.898;2023-01-15T11:42:17;20.0;;;16.0;;
21120;SDS011;12519;43.318;21.898;2023-01-15T11:46:55;19.0;;;12.0;;
21120;SDS011;12519;43.318;21.898;2023-01-15T11:51:42;19.0;;;12.0;;
21120;SDS011;12519;43.318;21.898;2023-01-15T11:56:28;19.0;;;12.0;;
21120;SDS011;12519;43.318;21.898;2023-01-15T12:01:13;16.0;;;12.0;;
21120;SDS011;12519;43.318;21.898;2023-01-15T12:06:03;16.0;;;12.0;;
21120;SDS011;12519;43.318;21.898;2023-01-15T12:10:59;14.0;;;13.0;;
21120;SDS011;12519;43.318;21.898;2023-01-15T12:16:13;14.0;;;13.0;;
21120;SDS011;12519;43.318;21.898;2023-01-15T12:21:41;14.0;;;13.0;;
21120;SDS011;12519;43.318;21.898;2023-01-15T12:27:18;14.0;;;13.0;;
21120;SDS011;12519;43.318;21.898;2023-01-15T12:32:41;14.0;;;13.0;;
21120;SDS011;12519;43.318;21.898;2023-01-15T12:37:52;14.0;;;12.0;;
21120;SDS011;12519;43.318;21.898;2023-01-15T12:42:53;14.0;;;12.0;;
21120;SDS011;12519;43.318;21.898;2023-01-15T12:47:44;14.0;;;12.0;;
21120;SDS011;12519;43.318;21.898;2023-01-15T12:52:48;14.0;;;12.0;;
21120;SDS011;12519;43.318;21.898;2023-01-15T12:57:43;16.0;;;14.0;;
21120;SDS011;12519;43.318;21.898;2023-01-15T13:02:49;16.0;;;14.0;;
21120;SDS011;12519;43.318;21.898;2023-01-15T13:07:58;17.0;;;15.0;;
21120;SDS011;12519;43.318;21.898;2023-01-15T13:12:45;17.0;;;15.0;;
21120;SDS011;12519;43.318;21.898;2023-01-15T13:17:40;20.0;;;16.0;;
21120;SDS011;12519;43.318;21.898;2023-01-15T13:23:04;20.0;;;16.0;;
21120;SDS011;12519;43.318;21.898;2023-01-15T13:28:25;24.0;;;17.0;;
21120;SDS011;12519;43.318;21.898;2023-01-15T13:33:49;24.0;;;17.0;;
21120;SDS011;12519;43.318;21.898;2023-01-15T13:38:58;20.0;;;16.0;;
21120;SDS011;12519;43.318;21.898;2023-01-15T13:44:00;20.0;;;16.0;;
21120;SDS011;12519;43.318;21.898;2023-01-15T13:48:45;15.0;;;14.0;;
21120;SDS011;12519;43.318;21.898;2023-01-15T13:53:33;15.0;;;14.0;;
21120;SDS011;12519;43.318;21.898;2023-01-15T13:58:29;26.0;;;22.0;;
21120;SDS011;12519;43.318;21.898;2023-01-15T14:03:28;26.0;;;22.0;;
21120;SDS011;12519;43.318;21.898;2023-01-15T14:08:22;36.0;;;29.0;;
21120;SDS011;12519;43.318;21.898;2023-01-15T14:13:51;36.0;;;29.0;;
21120;SDS011;12519;43.318;21.898;2023-01-15T14:20:31;38.0;;;30.0;;
21120;SDS011;12519;43.318;21.898;2023-01-15T14:25:50;38.0;;;30.0;;
21120;SDS011;12519;43.318;21.898;2023-01-15T14:31:26;40.0;;;32.0;;
21120;SDS011;12519;43.318;21.898;2023-01-15T14:36:27;40.0;;;32.0;;
21120;SDS011;12519;43.318;21.898;2023-01-15T14:41:12;34.0;;;29.0;;
21120;SDS011;12519;43.318;21.898;2023-01-15T14:45:50;34.0;;;29.0;;
21120;SDS011;12519;43.318;21.898;2023-01-15T14:50:36;29.0;;;26.0;;
21120;SDS011;12519;43.318;21.898;2023-01-15T14:55:20;29.0;;;26.0;;
21120;SDS011;12519;43.318;21.898;2023-01-15T15:00:04;38.0;;;32.0;;
21120;SDS011;12519;43.318;21.898;2023-01-15T15:04:57;38.0;;;32.0;;
21120;SDS011;12519;43.318;21.898;2023-01-15T15:09:46;46.0;;;39.0;;
21120;SDS011;12519;43.318;21.898;2023-01-15T15:14:42;46.0;;;39.0;;
21120;SDS011;12519;43.318;21.898;2023-01-15T15:19:56;48.0;;;38.0;;
21120;SDS011;12519;43.318;21.898;2023-01-15T15:25:18;48.0;;;38.0;;
21120;SDS011;12519;43.318;21.898;2023-01-15T15:30:12;50.0;;;37.0;;
21120;SDS011;12519;43.318;21.898;2023-01-15T15:34:53;50.0;;;37.0;;
21120;SDS011;12519;43.318;21.898;2023-01-15T15:39:44;52.0;;;37.0;;
21120;SDS011;12519;43.318;21.898;2023-01-15T15:44:40;52.0;;;37.0;;
21120;SDS011;12519;43.318;21.898;2023-01-15T15:49:39;53.0;;;37.0;;
21120;SDS011;12519;43.318;21.898;2023-01-15T15:54:21;53.0;;;37.0;;
21120;SDS011;12519;43.318;21.898;2023-01-15T15:59:01;88.0;;;71.0;;
21120;SDS011;12519;43.318;21.898;2023-01-15T16:03:47;88.0;;;71.0;;
21120;SDS011;12519;43.318;21.898;2023-01-15T16:08:25;122.0;;;105.0;;
21120;SDS011;12519;43.318;21.898;2023-01-15T16:13:21;122.0;;;105.0;;
21120;SDS011;12519;43.318;21.898;2023-01-15T16:18:05;116.0;;;100.0;;
21120;SDS011;12519;43.318;21.898;2023-01-15T16:23:04;116.0;;;100.0;;
21120;SDS011;12519;43.318;21.898;2023-01-15T16:27:56;110.0;;;96.0;;
21120;SDS011;12519;43.318;21.898;2023-01-15T16:32:43;110.0;;;96.0;;
21120;SDS011;12519;43.318;21.898;2023-01-15T16:37:28;113.0;;;100.0;;
21120;SDS011;12519;43.318;21.898;2023-01-15T16:42:28;113.0;;;100.0;;
21120;SDS011;12519;43.318;21.898;2023-01-15T16:47:24;116.0;;;104.0;;
21120;SDS011;12519;43.318;21.898;2023-01-15T16:52:49;116.0;;;104.0;;
21120;SDS011;12519;43.318;21.898;2023-01-15T16:57:31;104.0;;;91.0;;
21120;SDS011;12519;43.318;21.898;2023-01-15T17:02:16;104.0;;;91.0;;
21120;SDS011;12519;43.318;21.898;2023-01-15T17:07:00;104.0;;;91.0;;
21120;SDS011;12519;43.318;21.898;2023-01-15T17:11:41;91.0;;;78.0;;
21120;SDS011;12519;43.318;21.898;2023-01-15T17:16:23;91.0;;;78.0;;
21120;SDS011;12519;43.318;21.898;2023-01-15T17:21:00;84.0;;;74.0;;
21120;SDS011;12519;43.318;21.898;2023-01-15T17:25:36;84.0;;;74.0;;
21120;SDS011;12519;43.318;21.898;2023-01-15T17:30:14;78.0;;;70.0;;
21120;SDS011;12519;43.318;21.898;2023-01-15T17:34:53;78.0;;;70.0;;
21120;SDS011;12519;43.318;21.898;2023-01-15T17:39:30;95.0;;;79.0;;
21120;SDS011;12519;43.318;21.898;2023-01-15T17:44:08;95.0;;;79.0;;
21120;SDS011;12519;43.318;21.898;2023-01-15T17:48:45;112.0;;;88.0;;
21120;SDS011;12519;43.318;21.898;2023-01-15T17:53:22;112.0;;;88.0;;
21120;SDS011;12519;43.318;21.898;2023-01-15T17:57:59;103.0;;;86.0;;
21120;SDS011;12519;43.318;21.898;2023-01-15T18:02:35;103.0;;;86.0;;
21120;SDS011;12519;43.318;21.898;2023-01-15T18:07:16;103.0;;;86.0;;
21120;SDS011;12519;43.318;21.898;2023-01-15T18:12:11;94.0;;;84.0;;
21120;SDS011;12519;43.318;21.898;2023-01-15T18:16:47;94.0;;;84.0;;
21120;SDS011;12519;43.318;21.898;2023-01-15T18:21:23;100.0;;;80.0;;
21120;SDS011;12519;43.318;21.898;2023-01-15T18:26:02;100.0;;;80.0;;
21120;SDS011;12519;43.318;21.898;2023-01-15T18:30:41;105.0;;;76.0;;
21120;SDS011;12519;43.318;21.898;2023-01-15T18:35:18;105.0;;;76.0;;
21120;SDS011;12519;43.318;21.898;2023-01-15T18:39:54;114.0;;;86.0;;
21120;SDS011;12519;43.318;21.898;2023-01-15T18:44:30;114.0;;;86.0;;
21120;SDS011;12519;43.318;21.898;2023-01-15T18:49:07;122.0;;;95.0;;
21120;SDS011;12519;43.318;21.898;2023-01-15T18:53:43;122.0;;;95.0;;
21120;SDS011;12519;43.318;21.898;2023-01-15T18:58:23;106.0;;;84.0;;
21120;SDS011;12519;43.318;21.898;2023-01-15T19:03:00;106.0;;;84.0;;
21120;SDS011;12519;43.318;21.898;2023-01-15T19:07:37;91.0;;;72.0;;
21120;SDS011;12519;43.318;21.898;2023-01-15T19:12:15;91.0;;;72.0;;
21120;SDS011;12519;43.318;21.898;2023-01-15T19:16:52;91.0;;;72.0;;
21120;SDS011;12519;43.318;21.898;2023-01-15T19:21:29;116.0;;;94.0;;
21120;SDS011;12519;43.318;21.898;2023-01-15T19:26:06;116.0;;;94.0;;
21120;SDS011;12519;43.318;21.898;2023-01-15T19:30:44;141.0;;;115.0;;
21120;SDS011;12519;43.318;21.898;2023-01-15T19:35:24;141.0;;;115.0;;
21120;SDS011;12519;43.318;21.898;2023-01-15T19:40:02;140.0;;;115.0;;
21120;SDS011;12519;43.318;21.898;2023-01-15T19:44:45;140.0;;;115.0;;
21120;SDS011;12519;43.318;21.898;2023-01-15T19:49:22;140.0;;;115.0;;
21120;SDS011;12519;43.318;21.898;2023-01-15T19:53:58;140.0;;;115.0;;
21120;SDS011;12519;43.318;21.898;2023-01-15T19:58:35;140.0;;;111.0;;
21120;SDS011;12519;43.318;21.898;2023-01-15T20:03:11;140.0;;;111.0;;
21120;SDS011;12519;43.318;21.898;2023-01-15T20:07:47;140.0;;;107.0;;
21120;SDS011;12519;43.318;21.898;2023-01-15T20:12:24;140.0;;;107.0;;
21120;SDS011;12519;43.318;21.898;2023-01-15T20:17:01;140.0;;;107.0;;
21120;SDS011;12519;43.318;21.898;2023-01-15T20:21:37;127.0;;;102.0;;
21120;SDS011;12519;43.318;21.898;2023-01-15T20:26:14;127.0;;;102.0;;
21120;SDS011;12519;43.318;21.898;2023-01-15T20:30:51;114.0;;;96.0;;
21120;SDS011;12519;43.318;21.898;2023-01-15T20:35:29;114.0;;;96.0;;
21120;SDS011;12519;43.318;21.898;2023-01-15T20:40:07;102.0;;;86.0;;
21120;SDS011;12519;43.318;21.898;2023-01-15T20:44:48;102.0;;;86.0;;
21120;SDS011;12519;43.318;21.898;2023-01-15T20:49:25;89.0;;;75.0;;
21120;SDS011;12519;43.318;21.898;2023-01-15T20:54:02;89.0;;;75.0;;
21120;SDS011;12519;43.318;21.898;2023-01-15T20:58:38;94.0;;;74.0;;
21120;SDS011;12519;43.318;21.898;2023-01-15T21:03:16;94.0;;;74.0;;
21120;SDS011;12519;43.318;21.898;2023-01-15T21:07:53;98.0;;;74.0;;
21120;SDS011;12519;43.318;21.898;2023-01-15T21:12:29;98.0;;;74.0;;
21120;SDS011;12519;43.318;21.898;2023-01-15T21:17:05;98.0;;;74.0;;
21120;SDS011;12519;43.318;21.898;2023-01-15T21:21:42;92.0;;;73.0;;
21120;SDS011;12519;43.318;21.898;2023-01-15T21:26:18;92.0;;;73.0;;
21120;SDS011;12519;43.318;21.898;2023-01-15T21:30:56;87.0;;;72.0;;
21120;SDS011;12519;43.318;21.898;2023-01-15T21:35:37;87.0;;;72.0;;
21120;SDS011;12519;43.318;21.898;2023-01-15T21:40:16;74.0;;;62.0;;
21120;SDS011;12519;43.318;21.898;2023-01-15T21:44:54;74.0;;;62.0;;
21120;SDS011;12519;43.318;21.898;2023-01-15T21:49:31;62.0;;;52.0;;
21120;SDS011;12519;43.318;21.898;2023-01-15T21:54:11;62.0;;;52.0;;
21120;SDS011;12519;43.318;21.898;2023-01-15T21:58:48;60.0;;;52.0;;
21120;SDS011;12519;43.318;21.898;2023-01-15T22:03:24;60.0;;;52.0;;
21120;SDS011;12519;43.318;21.898;2023-01-15T22:08:02;57.0;;;53.0;;
21120;SDS011;12519;43.318;21.898;2023-01-15T22:12:39;57.0;;;53.0;;
21120;SDS011;12519;43.318;21.898;2023-01-15T22:17:16;57.0;;;53.0;;
21120;SDS011;12519;43.318;21.898;2023-01-15T22:21:55;60.0;;;53.0;;
21120;SDS011;12519;43.318;21.898;2023-01-15T22:26:38;60.0;;;53.0;;
21120;SDS011;12519;43.318;21.898;2023-01-15T22:31:15;64.0;;;53.0;;
21120;SDS011;12519;43.318;21.898;2023-01-15T22:35:55;64.0;;;53.0;;
21120;SDS011;12519;43.318;21.898;2023-01-15T22:40:35;68.0;;;56.0;;
21120;SDS011;12519;43.318;21.898;2023-01-15T22:45:11;68.0;;;56.0;;
21120;SDS011;12519;43.318;21.898;2023-01-15T22:49:48;73.0;;;58.0;;
21120;SDS011;12519;43.318;21.898;2023-01-15T22:54:25;73.0;;;58.0;;
21120;SDS011;12519;43.318;21.898;2023-01-15T22:59:01;62.0;;;50.0;;
21120;SDS011;12519;43.318;21.898;2023-01-15T23:03:37;62.0;;;50.0;;
21120;SDS011;12519;43.318;21.898;2023-01-15T23:08:15;51.0;;;43.0;;
21120;SDS011;12519;43.318;21.898;2023-01-15T23:12:52;51.0;;;43.0;;
21120;SDS011;12519;43.318;21.898;2023-01-15T23:17:29;51.0;;;43.0;;
21120;SDS011;12519;43.318;21.898;2023-01-15T23:22:05;52.0;;;44.0;;
21120;SDS011;12519;43.318;21.898;2023-01-15T23:26:42;52.0;;;44.0;;
21120;SDS011;12519;43.318;21.898;2023-01-15T23:31:20;52.0;;;46.0;;
21120;SDS011;12519;43.318;21.898;2023-01-15T23:35:58;52.0;;;46.0;;
21120;SDS011;12519;43.318;21.898;2023-01-15T23:40:38;56.0;;;45.0;;
21120;SDS011;12519;43.318;21.898;2023-01-15T23:45:15;56.0;;;45.0;;
21120;SDS011;12519;43.318;21.898;2023-01-15T23:49:52;59.0;;;44.0;;
21120;SDS011;12519;43.318;21.898;2023-01-15T23:54:28;59.0;;;44.0;;
21120;SDS011;12519;43.318;21.898;2023-01-15T23:59:04;52.0;;;40.0;;
